createdAt,value
2023-05-25T00:01:03.075Z,15.50
2023-05-25T00:03:31.251Z,12.10
2023-05-25T00:05:58.836Z,14.05
2023-05-25T00:08:25.544Z,15.70
2023-05-25T00:10:52.407Z,18.17
2023-05-25T00:13:19.158Z,12.90
2023-05-25T00:15:46.042Z,14.55
2023-05-25T00:18:13.167Z,14.63
2023-05-25T00:20:40.071Z,10.98
2023-05-25T00:23:06.793Z,14.60
2023-05-25T00:25:33.543Z,15.50
2023-05-25T00:28:00.288Z,8.40
2023-05-25T00:30:27.023Z,11.55
2023-05-25T00:32:55.607Z,12.25
2023-05-25T00:35:22.343Z,13.18
2023-05-25T00:37:49.702Z,9.52
2023-05-25T00:40:18.542Z,12.10
2023-05-25T00:42:45.473Z,11.50
2023-05-25T00:45:12.828Z,12.13
2023-05-25T00:47:39.908Z,15.18
2023-05-25T00:50:09.409Z,9.55
2023-05-25T00:52:36.204Z,11.13
2023-05-25T00:55:03.647Z,9.02
2023-05-25T00:57:34.251Z,12.50
2023-05-25T01:00:02.289Z,10.93
2023-05-25T01:02:29.620Z,10.32
2023-05-25T01:05:01.010Z,9.00
2023-05-25T01:07:31.011Z,9.68
2023-05-25T01:10:01.543Z,12.48
2023-05-25T01:12:30.305Z,11.32
2023-05-25T01:14:57.476Z,13.50
2023-05-25T01:17:24.215Z,9.65
2023-05-25T01:20:08.785Z,12.35
2023-05-25T01:22:54.119Z,9.52
2023-05-25T01:25:25.234Z,10.43
2023-05-25T01:27:57.904Z,11.55
2023-05-25T01:30:26.798Z,15.10
2023-05-25T01:32:54.742Z,13.18
2023-05-25T01:35:23.456Z,14.82
2023-05-25T01:37:52.277Z,11.98
2023-05-25T01:40:19.035Z,13.57
2023-05-25T01:42:45.920Z,12.13
2023-05-25T01:45:14.419Z,12.07
2023-05-25T01:48:14.696Z,12.20
2023-05-25T01:50:58.040Z,14.88
2023-05-25T01:53:33.918Z,12.85
2023-05-25T01:56:04.892Z,14.60
2023-05-25T01:58:36.714Z,15.95
2023-05-25T02:01:03.726Z,12.75
2023-05-25T02:03:30.502Z,15.18
2023-05-25T02:05:57.990Z,14.32
2023-05-25T02:08:24.780Z,12.20
2023-05-25T02:10:51.623Z,11.88
2023-05-25T02:13:18.344Z,11.70
2023-05-25T02:15:45.267Z,14.18
2023-05-25T02:18:13.767Z,14.73
2023-05-25T02:20:40.871Z,12.68
2023-05-25T02:23:07.715Z,13.00
2023-05-25T02:25:34.455Z,16.70
2023-05-25T02:28:01.254Z,17.17
2023-05-25T02:30:27.988Z,16.00
2023-05-25T02:32:54.715Z,15.55
2023-05-25T02:35:21.439Z,12.52
2023-05-25T02:37:50.906Z,15.15
2023-05-25T02:40:19.143Z,13.70
2023-05-25T02:42:45.943Z,11.93
2023-05-25T02:45:12.866Z,13.63
2023-05-25T02:47:39.750Z,14.90
2023-05-25T02:50:06.910Z,16.33
2023-05-25T02:52:33.722Z,11.55
2023-05-25T02:55:01.020Z,15.38
2023-05-25T02:57:28.432Z,16.15
2023-05-25T02:59:55.157Z,17.08
2023-05-25T03:02:25.287Z,11.65
2023-05-25T03:04:53.909Z,15.40
2023-05-25T03:07:21.387Z,14.38
2023-05-25T03:09:48.148Z,15.77
2023-05-25T03:12:14.956Z,10.35
2023-05-25T03:14:41.685Z,13.80
2023-05-25T03:17:08.438Z,13.93
2023-05-25T03:19:35.160Z,10.60
2023-05-25T03:22:03.720Z,13.95
2023-05-25T03:24:30.682Z,12.40
2023-05-25T03:26:57.512Z,19.05
2023-05-25T03:29:24.163Z,12.95
2023-05-25T03:31:51.028Z,13.07
2023-05-25T03:34:17.877Z,11.40
2023-05-25T03:36:47.486Z,13.00
2023-05-25T03:39:14.226Z,11.10
2023-05-25T03:41:40.931Z,15.70
2023-05-25T03:44:07.584Z,14.63
2023-05-25T03:46:34.361Z,17.10
2023-05-25T03:49:01.134Z,14.77
2023-05-25T03:51:29.404Z,20.92
2023-05-25T03:53:56.275Z,17.00
2023-05-25T03:56:23.246Z,20.38
2023-05-25T03:58:50.026Z,21.27
2023-05-25T04:01:16.707Z,20.80
2023-05-25T04:03:43.534Z,20.92
2023-05-25T04:06:10.318Z,24.15
2023-05-25T04:08:37.016Z,23.17
2023-05-25T04:11:03.653Z,20.38
2023-05-25T04:13:30.646Z,24.58
2023-05-25T04:15:57.412Z,20.42
2023-05-25T04:18:24.084Z,20.08
2023-05-25T04:20:50.823Z,21.92
2023-05-25T04:23:19.578Z,23.30
2023-05-25T04:25:46.527Z,21.15
2023-05-25T04:28:13.264Z,22.58
2023-05-25T04:30:41.565Z,22.90
2023-05-25T04:33:11.613Z,21.70
2023-05-25T04:35:38.339Z,20.63
2023-05-25T04:38:05.021Z,21.77
2023-05-25T04:40:33.257Z,17.85
2023-05-25T04:43:00.055Z,20.48
2023-05-25T04:45:27.491Z,23.77
2023-05-25T04:47:54.386Z,22.30
2023-05-25T04:50:21.160Z,19.80
2023-05-25T04:52:47.818Z,20.08
2023-05-25T04:55:14.616Z,19.92
2023-05-25T04:57:42.087Z,20.35
2023-05-25T05:00:11.110Z,19.05
2023-05-25T05:02:37.886Z,22.40
2023-05-25T05:05:04.845Z,22.58
2023-05-25T05:07:31.757Z,19.13
2023-05-25T05:09:58.541Z,19.45
2023-05-25T05:12:25.312Z,21.52
2023-05-25T05:14:52.176Z,26.08
2023-05-25T05:17:19.133Z,20.05
2023-05-25T05:19:45.836Z,19.00
2023-05-25T05:22:15.915Z,21.55
2023-05-25T05:24:42.910Z,23.38
2023-05-25T05:27:10.669Z,22.52
2023-05-25T05:29:37.493Z,22.55
2023-05-25T05:32:04.350Z,21.70
2023-05-25T05:34:31.529Z,28.08
2023-05-25T05:37:00.064Z,18.55
2023-05-25T05:39:27.386Z,26.40
2023-05-25T05:41:55.178Z,29.90
2023-05-25T05:44:24.614Z,30.08
2023-05-25T05:46:53.081Z,23.40
2023-05-25T05:49:19.749Z,23.98
2023-05-25T05:51:46.494Z,26.23
2023-05-25T05:54:13.192Z,27.67
2023-05-25T05:56:39.922Z,25.90
2023-05-25T05:59:06.730Z,25.85
2023-05-25T06:01:33.433Z,23.17
2023-05-25T06:04:00.229Z,23.65
2023-05-25T06:06:27.581Z,20.83
2023-05-25T06:08:54.504Z,18.73
2023-05-25T06:11:21.464Z,25.40
2023-05-25T06:13:48.121Z,20.63
2023-05-25T06:16:14.988Z,26.45
2023-05-25T06:18:41.806Z,20.52
2023-05-25T06:21:09.458Z,20.85
2023-05-25T06:23:36.886Z,25.92
2023-05-25T06:26:05.345Z,22.67
2023-05-25T06:28:32.499Z,25.00
2023-05-25T06:30:59.391Z,23.60
2023-05-25T06:33:26.390Z,23.65
2023-05-25T06:35:56.420Z,22.05
2023-05-25T06:38:23.953Z,28.08
2023-05-25T06:40:50.796Z,19.20
2023-05-25T06:43:17.440Z,17.92
2023-05-25T06:45:44.433Z,19.55
2023-05-25T06:48:11.609Z,21.73
2023-05-25T06:50:39.702Z,21.88
2023-05-25T06:53:06.707Z,18.05
2023-05-25T06:55:33.487Z,18.50
2023-05-25T06:58:00.227Z,18.80
2023-05-25T07:00:27.091Z,17.15
2023-05-25T07:02:54.031Z,17.42
2023-05-25T07:05:21.073Z,18.00
2023-05-25T07:07:47.830Z,17.95
2023-05-25T07:10:14.573Z,17.33
2023-05-25T07:12:41.226Z,17.45
2023-05-25T07:15:08.665Z,18.45
2023-05-25T07:17:36.536Z,21.30
2023-05-25T07:20:04.853Z,20.25
2023-05-25T07:22:31.705Z,21.92
2023-05-25T07:24:58.553Z,19.38
2023-05-25T07:27:25.466Z,16.02
2023-05-25T07:29:52.204Z,17.50
2023-05-25T07:32:18.973Z,18.80
2023-05-25T07:34:45.716Z,20.30
2023-05-25T07:37:12.521Z,18.98
2023-05-25T07:39:40.527Z,20.45
2023-05-25T07:42:07.382Z,17.33
2023-05-25T07:44:34.506Z,21.77
2023-05-25T07:47:01.424Z,16.17
2023-05-25T07:49:28.214Z,19.73
2023-05-25T07:51:54.993Z,19.20
2023-05-25T07:54:21.674Z,20.75
2023-05-25T07:56:48.530Z,21.38
2023-05-25T07:59:15.505Z,18.27
2023-05-25T08:01:42.243Z,19.02
2023-05-25T08:04:09.552Z,20.20
2023-05-25T08:06:36.545Z,20.20
2023-05-25T08:09:04.804Z,18.60
2023-05-25T08:11:31.546Z,17.65
2023-05-25T08:14:00.093Z,19.13
2023-05-25T08:16:26.978Z,17.25
2023-05-25T08:18:53.705Z,17.52
2023-05-25T08:21:20.524Z,16.35
2023-05-25T08:23:47.272Z,19.08
2023-05-25T08:26:34.083Z,16.38
2023-05-25T08:29:02.412Z,15.20
2023-05-25T08:31:29.205Z,16.35
2023-05-25T08:33:56.030Z,15.75
2023-05-25T08:36:22.795Z,16.85
2023-05-25T08:38:49.457Z,18.35
2023-05-25T08:41:16.766Z,17.30
2023-05-25T08:43:43.596Z,18.52
2023-05-25T08:46:10.312Z,17.98
2023-05-25T08:48:42.468Z,16.58
2023-05-25T08:51:11.950Z,15.13
2023-05-25T08:53:43.765Z,14.90
2023-05-25T08:56:20.721Z,16.60
2023-05-25T08:59:00.992Z,16.02
2023-05-25T09:01:32.389Z,15.70
2023-05-25T09:04:01.204Z,17.67
2023-05-25T09:06:28.244Z,19.83
2023-05-25T09:08:55.055Z,16.60
2023-05-25T09:11:35.958Z,25.92
2023-05-25T09:14:04.765Z,21.70
2023-05-25T09:16:33.431Z,17.25
2023-05-25T09:19:01.912Z,16.23
2023-05-25T09:21:28.806Z,21.10
2023-05-25T09:23:55.759Z,19.50
2023-05-25T09:26:22.541Z,18.80
2023-05-25T09:28:49.352Z,18.83
2023-05-25T09:31:16.652Z,18.05
2023-05-25T09:33:44.182Z,17.83
2023-05-25T09:36:12.859Z,16.27
2023-05-25T09:38:40.917Z,19.60
2023-05-25T09:41:07.966Z,16.95
2023-05-25T09:43:44.585Z,21.20
2023-05-25T09:46:14.271Z,18.98
2023-05-25T09:48:41.964Z,20.25
2023-05-25T09:51:09.218Z,21.00
2023-05-25T09:53:39.704Z,19.40
2023-05-25T09:56:06.537Z,19.05
2023-05-25T09:58:33.210Z,20.45
2023-05-25T10:01:00.883Z,19.90
2023-05-25T10:03:27.801Z,17.13
2023-05-25T10:05:55.303Z,17.27
2023-05-25T10:08:25.706Z,21.45
2023-05-25T10:10:53.919Z,18.27
2023-05-25T10:13:22.876Z,17.90
2023-05-25T10:15:54.596Z,20.25
2023-05-25T10:18:27.413Z,18.10
2023-05-25T10:21:03.907Z,16.88
2023-05-25T10:23:37.869Z,19.88
2023-05-25T10:26:06.397Z,20.05
2023-05-25T10:28:37.638Z,15.15
2023-05-25T10:31:05.171Z,18.77
2023-05-25T10:33:33.564Z,19.40
2023-05-25T10:38:36.725Z,17.67
2023-05-25T10:41:05.657Z,16.80
2023-05-25T10:43:32.832Z,19.02
2023-05-25T10:45:59.811Z,15.90
2023-05-25T10:48:39.456Z,18.90
2023-05-25T10:51:08.331Z,17.95
2023-05-25T10:53:36.745Z,18.73
2023-05-25T10:56:05.166Z,14.75
2023-05-25T10:58:32.943Z,14.77
2023-05-25T11:01:03.623Z,18.60
2023-05-25T11:04:18.297Z,20.77
2023-05-25T11:06:47.947Z,16.48
2023-05-25T11:09:25.597Z,15.15
2023-05-25T11:11:53.100Z,14.75
2023-05-25T11:14:44.785Z,20.05
2023-05-25T11:17:15.628Z,18.58
2023-05-25T11:19:51.105Z,16.30
2023-05-25T11:22:22.163Z,17.92
2023-05-25T11:24:50.713Z,15.70
2023-05-25T11:27:24.432Z,16.95
2023-05-25T11:29:52.254Z,14.43
2023-05-25T11:32:19.270Z,13.07
2023-05-25T11:34:47.946Z,13.95
2023-05-25T11:37:21.164Z,11.55
2023-05-25T11:39:51.872Z,13.35
2023-05-25T11:42:23.141Z,13.75
2023-05-25T11:44:50.410Z,13.73
2023-05-25T11:47:19.542Z,12.68
2023-05-25T11:49:47.644Z,11.95
2023-05-25T11:52:19.456Z,12.20
2023-05-25T11:54:46.657Z,12.55
2023-05-25T11:57:19.652Z,14.70
2023-05-25T11:59:50.202Z,12.55
2023-05-25T12:02:16.994Z,14.23
2023-05-25T12:05:02.371Z,10.02
2023-05-25T12:07:30.595Z,9.40
2023-05-25T12:10:12.164Z,9.38
2023-05-25T12:12:47.227Z,10.75
2023-05-25T12:15:18.256Z,14.70
2023-05-25T12:17:47.338Z,12.95
2023-05-25T12:20:16.745Z,9.75
2023-05-25T12:22:44.470Z,9.38
2023-05-25T12:25:12.620Z,10.27
2023-05-25T12:27:40.304Z,11.73
2023-05-25T12:30:09.566Z,11.07
2023-05-25T12:32:55.028Z,12.50
2023-05-25T12:35:22.027Z,11.07
2023-05-25T12:37:48.737Z,9.90
2023-05-25T12:40:20.423Z,10.90
2023-05-25T12:42:56.779Z,9.57
2023-05-25T12:45:23.967Z,9.63
2023-05-25T12:47:51.048Z,9.32
2023-05-25T12:50:19.393Z,11.88
2023-05-25T12:52:47.837Z,11.32
2023-05-25T12:55:28.126Z,10.77
2023-05-25T12:57:55.816Z,11.38
2023-05-25T13:00:27.361Z,12.07
2023-05-25T13:02:54.661Z,11.43
2023-05-25T13:05:29.141Z,9.88
2023-05-25T13:07:57.330Z,10.65
2023-05-25T13:10:25.031Z,7.97
2023-05-25T13:12:53.928Z,11.68
2023-05-25T13:15:21.891Z,10.00
2023-05-25T13:17:50.424Z,12.88
2023-05-25T13:20:23.020Z,9.55
2023-05-25T13:22:51.771Z,9.13
2023-05-25T13:25:19.339Z,8.18
2023-05-25T13:27:49.035Z,7.88
2023-05-25T13:30:15.897Z,10.80
2023-05-25T13:32:43.751Z,10.27
2023-05-25T13:35:37.902Z,8.25
2023-05-25T13:38:05.103Z,11.02
2023-05-25T13:40:31.826Z,9.70
2023-05-25T13:42:58.654Z,9.88
2023-05-25T13:45:25.401Z,12.05
2023-05-25T13:47:52.435Z,9.77
2023-05-25T13:50:20.199Z,10.80
2023-05-25T13:52:46.876Z,12.05
2023-05-25T13:55:13.600Z,10.32
2023-05-25T13:57:40.349Z,9.10
2023-05-25T14:00:08.516Z,9.88
2023-05-25T14:02:35.722Z,9.10
2023-05-25T14:05:02.589Z,9.55
2023-05-25T14:07:29.291Z,9.05
2023-05-25T14:09:57.484Z,7.88
2023-05-25T14:12:24.954Z,9.55
2023-05-25T14:14:51.740Z,9.18
2023-05-25T14:17:18.547Z,9.38
2023-05-25T14:19:45.379Z,9.07
2023-05-25T14:22:14.442Z,10.77
2023-05-25T14:24:42.039Z,10.88
2023-05-25T14:27:09.152Z,10.05
2023-05-25T14:29:36.192Z,9.55
2023-05-25T14:32:03.148Z,9.40
2023-05-25T14:34:29.938Z,10.38
2023-05-25T14:36:56.682Z,7.85
2023-05-25T14:39:23.433Z,12.55
2023-05-25T14:41:50.234Z,9.77
2023-05-25T14:44:17.019Z,9.60
2023-05-25T14:46:44.002Z,11.15
2023-05-25T14:49:10.931Z,9.38
2023-05-25T14:51:38.016Z,11.25
2023-05-25T14:54:07.261Z,8.60
2023-05-25T14:56:34.240Z,8.13
2023-05-25T14:59:00.991Z,8.70
2023-05-25T15:01:29.262Z,9.45
2023-05-25T15:03:56.426Z,10.75
2023-05-25T15:06:23.304Z,9.45
2023-05-25T15:08:49.984Z,10.98
2023-05-25T15:11:18.026Z,9.88
2023-05-25T15:13:44.905Z,12.45
2023-05-25T15:16:16.277Z,7.75
2023-05-25T15:18:43.639Z,7.45
2023-05-25T15:21:10.463Z,9.63
2023-05-25T15:23:37.256Z,11.27
2023-05-25T15:26:04.846Z,9.18
2023-05-25T15:28:31.842Z,7.68
2023-05-25T15:31:00.840Z,8.20
2023-05-25T15:33:39.925Z,7.97
2023-05-25T15:36:15.004Z,10.80
2023-05-25T15:38:43.282Z,11.98
2023-05-25T15:41:11.352Z,11.93
2023-05-25T15:43:38.045Z,9.07
2023-05-25T15:46:04.808Z,8.02
2023-05-25T15:48:31.521Z,8.90
2023-05-25T15:50:58.176Z,11.52
2023-05-25T15:53:24.871Z,8.07
2023-05-25T15:55:51.632Z,9.13
2023-05-25T15:58:18.392Z,8.23
2023-05-25T16:00:45.152Z,10.73
2023-05-25T16:03:11.852Z,10.30
2023-05-25T16:05:38.647Z,11.73
2023-05-25T16:08:05.386Z,8.55
2023-05-25T16:10:32.069Z,9.05
2023-05-25T16:12:58.750Z,10.27
2023-05-25T16:15:26.101Z,8.68
2023-05-25T16:17:52.826Z,10.20
2023-05-25T16:20:19.606Z,10.07
2023-05-25T16:22:46.463Z,9.40
2023-05-25T16:25:13.208Z,11.13
2023-05-25T16:27:43.608Z,9.07
2023-05-25T16:30:12.557Z,12.35
2023-05-25T16:32:40.151Z,11.48
2023-05-25T16:35:07.200Z,10.48
2023-05-25T16:37:33.913Z,11.73
2023-05-25T16:40:00.706Z,9.40
2023-05-25T16:42:27.444Z,10.07
2023-05-25T16:44:54.323Z,9.80
2023-05-25T16:47:21.810Z,13.90
2023-05-25T16:49:48.899Z,9.93
2023-05-25T16:52:15.702Z,10.15
2023-05-25T16:54:42.405Z,9.52
2023-05-25T16:57:11.979Z,10.00
2023-05-25T16:59:39.313Z,12.43
2023-05-25T17:02:06.549Z,11.73
2023-05-25T17:04:33.379Z,13.18
2023-05-25T17:07:00.105Z,11.77
2023-05-25T17:09:26.886Z,15.88
2023-05-25T17:11:54.022Z,10.38
2023-05-25T17:14:21.016Z,12.48
2023-05-25T17:16:47.775Z,12.73
2023-05-25T17:19:15.042Z,10.07
2023-05-25T17:21:44.709Z,10.85
2023-05-25T17:24:11.660Z,11.77
2023-05-25T17:26:38.396Z,12.35
2023-05-25T17:29:06.118Z,10.52
2023-05-25T17:31:33.388Z,8.20
2023-05-25T17:34:00.196Z,10.60
2023-05-25T17:36:26.945Z,13.23
2023-05-25T17:38:53.723Z,13.38
2023-05-25T17:41:20.848Z,12.43
2023-05-25T17:43:47.596Z,9.80
2023-05-25T17:46:14.339Z,12.73
2023-05-25T17:48:41.116Z,11.52
2023-05-25T17:51:07.872Z,9.25
2023-05-25T17:53:34.545Z,9.63
2023-05-25T17:56:01.206Z,12.70
2023-05-25T17:58:27.946Z,11.30
2023-05-25T18:00:54.684Z,12.60
2023-05-25T18:03:21.669Z,10.13
2023-05-25T18:05:48.394Z,12.13
2023-05-25T18:08:15.082Z,8.50
2023-05-25T18:10:41.862Z,9.55
2023-05-25T18:13:08.533Z,10.88
2023-05-25T18:15:35.276Z,7.70
2023-05-25T18:18:03.751Z,9.75
2023-05-25T18:20:30.524Z,10.68
2023-05-25T18:22:58.648Z,11.32
2023-05-25T18:25:25.342Z,9.75
2023-05-25T18:27:52.149Z,8.70
2023-05-25T18:30:19.023Z,8.98
2023-05-25T18:32:45.790Z,9.95
2023-05-25T18:35:12.567Z,8.48
2023-05-25T18:37:39.314Z,7.30
2023-05-25T18:40:07.050Z,7.93
2023-05-25T18:42:34.882Z,10.15
2023-05-25T18:45:01.687Z,8.13
2023-05-25T18:47:28.383Z,11.65
2023-05-25T18:49:55.271Z,9.32
2023-05-25T18:52:22.437Z,8.27
2023-05-25T18:54:49.644Z,6.95
2023-05-25T18:57:16.387Z,7.95
2023-05-25T18:59:43.116Z,11.85
2023-05-25T19:02:09.942Z,9.35
2023-05-25T19:04:37.589Z,13.80
2023-05-25T19:07:04.461Z,10.07
2023-05-25T19:09:31.220Z,7.72
2023-05-25T19:11:57.934Z,8.40
2023-05-25T19:14:24.689Z,8.75
2023-05-25T19:16:51.520Z,8.65
2023-05-25T19:19:18.335Z,8.27
2023-05-25T19:21:45.453Z,10.32
2023-05-25T19:24:12.178Z,7.93
2023-05-25T19:26:39.216Z,10.18
2023-05-25T19:29:05.960Z,10.40
2023-05-25T19:31:32.625Z,9.52
2023-05-25T19:33:59.298Z,9.77
2023-05-25T19:36:26.283Z,6.50
2023-05-25T19:38:53.028Z,9.90
2023-05-25T19:41:19.757Z,8.55
2023-05-25T19:43:46.889Z,9.20
2023-05-25T19:46:13.576Z,9.77
2023-05-25T19:48:40.637Z,7.82
2023-05-25T19:51:07.415Z,8.52
2023-05-25T19:53:34.186Z,10.70
2023-05-25T19:56:01.138Z,7.07
2023-05-25T19:58:27.837Z,8.90
2023-05-25T20:00:54.835Z,7.07
2023-05-25T20:03:21.709Z,7.55
2023-05-25T20:05:48.537Z,7.28
2023-05-25T20:08:15.341Z,9.45
2023-05-25T20:10:43.988Z,9.52
2023-05-25T20:13:11.054Z,9.40
2023-05-25T20:15:37.934Z,13.38
2023-05-25T20:18:04.668Z,9.32
2023-05-25T20:20:32.156Z,10.43
2023-05-25T20:22:58.891Z,8.80
2023-05-25T20:25:25.612Z,10.23
2023-05-25T20:27:52.279Z,9.68
2023-05-25T20:30:19.018Z,8.70
2023-05-25T20:32:45.847Z,9.55
2023-05-25T20:35:13.310Z,11.43
2023-05-25T20:37:39.965Z,12.02
2023-05-25T20:40:07.155Z,13.30
2023-05-25T20:42:33.815Z,9.73
2023-05-25T20:45:00.525Z,8.52
2023-05-25T20:47:27.562Z,10.15
2023-05-25T20:49:54.237Z,11.98
2023-05-25T20:52:22.770Z,11.32
2023-05-25T20:54:49.625Z,8.82
2023-05-25T20:57:16.773Z,8.82
2023-05-25T20:59:43.480Z,9.35
2023-05-25T21:02:10.187Z,10.02
2023-05-25T21:04:36.905Z,9.70
2023-05-25T21:07:03.759Z,9.32
2023-05-25T21:09:30.544Z,9.55
2023-05-25T21:11:57.277Z,12.50
2023-05-25T21:14:23.963Z,9.63
2023-05-25T21:16:51.345Z,11.18
2023-05-25T21:19:18.001Z,9.38
2023-05-25T21:21:44.652Z,11.95
2023-05-25T21:24:11.304Z,8.73
2023-05-25T21:26:38.114Z,10.93
2023-05-25T21:29:04.867Z,9.40
2023-05-25T21:31:31.587Z,8.93
2023-05-25T21:34:00.014Z,8.77
2023-05-25T21:36:27.021Z,8.95
2023-05-25T21:38:53.751Z,8.98
2023-05-25T21:41:20.530Z,10.50
2023-05-25T21:43:47.269Z,10.00
2023-05-25T21:46:14.054Z,10.20
2023-05-25T21:48:40.729Z,9.82
2023-05-25T21:51:07.381Z,7.32
2023-05-25T21:53:34.134Z,11.30
2023-05-25T21:56:00.843Z,8.45
2023-05-25T21:58:27.581Z,8.43
2023-05-25T22:00:54.315Z,10.07
2023-05-25T22:03:21.231Z,10.40
2023-05-25T22:05:47.954Z,8.25
2023-05-25T22:08:14.681Z,9.75
2023-05-25T22:10:41.555Z,8.18
2023-05-25T22:13:08.270Z,11.95
2023-05-25T22:15:35.266Z,9.23
2023-05-25T22:18:02.046Z,12.27
2023-05-25T22:20:28.795Z,10.60
2023-05-25T22:22:55.562Z,10.95
2023-05-25T22:25:22.303Z,10.13
2023-05-25T22:27:48.976Z,10.95
2023-05-25T22:30:15.805Z,10.88
2023-05-25T22:32:42.463Z,10.25
2023-05-25T22:35:09.382Z,11.02
2023-05-25T22:37:36.139Z,11.80
2023-05-25T22:40:05.788Z,9.77
2023-05-25T22:42:32.487Z,11.02
2023-05-25T22:44:59.287Z,9.73
2023-05-25T22:47:26.036Z,10.75
2023-05-25T22:49:52.705Z,10.77
2023-05-25T22:52:19.455Z,10.45
2023-05-25T22:54:46.160Z,8.68
2023-05-25T22:57:12.839Z,10.02
2023-05-25T22:59:39.541Z,9.95
2023-05-25T23:02:06.648Z,10.82
2023-05-25T23:04:35.670Z,9.00
2023-05-25T23:07:02.570Z,13.95
2023-05-25T23:09:29.222Z,11.32
2023-05-25T23:11:55.879Z,11.20
2023-05-25T23:14:22.522Z,13.07
2023-05-25T23:16:49.331Z,11.98
2023-05-25T23:19:16.722Z,10.63
2023-05-25T23:21:43.881Z,10.07
2023-05-25T23:24:10.719Z,10.73
2023-05-25T23:26:37.377Z,11.82
2023-05-25T23:29:04.136Z,13.00
2023-05-25T23:31:31.034Z,12.55
2023-05-25T23:33:57.777Z,14.38
2023-05-25T23:36:28.027Z,12.75
2023-05-25T23:38:54.752Z,15.18
2023-05-25T23:41:22.080Z,14.98
2023-05-25T23:43:48.864Z,14.75
2023-05-25T23:46:16.339Z,15.10
2023-05-25T23:48:44.070Z,20.02
2023-05-25T23:51:11.005Z,13.25
2023-05-25T23:53:38.681Z,14.38
2023-05-25T23:56:05.582Z,18.00
2023-05-25T23:58:32.268Z,13.65
